West Colesville, New York
Current Conditions -  °F | °C
As of 12:53 PM on Monday 26 Jan 2015 (Local Time) from KBGM Reporting Station
Light Snow Light Snow  
Wind Chill:   Ceiling: 2500
Heat Index: 14°   Visibility: 1.5mi
Dew Point: 10°   Wind: 7mph
Humidity: 84%   Direction: 70°ENE
Pressure: 29.81"   Gusts: NA
Location:  42.133°N, 75.8266°W
Report Text: KBGM 261753Z 07006KT 1 1/2SM -SN BR OVC025 M10/M12 A2981 RMK AO2 SFC VIS 2 SLP126 P0001 60012 T11001122 11100 21144 56018
Loading
Personal Weather Stations






























Interactive Weather Map New forecast layout! Learn more

10-Day Weather Forecast

Advertisements
Track Severe Weather on mobile